createdAt,value
2019-02-20T00:00:57.182Z,148578.80
2019-02-20T00:02:03.154Z,148608.50
2019-02-20T00:03:09.154Z,148651.44
2019-02-20T00:04:15.090Z,148643.86
2019-02-20T00:05:21.040Z,148629.30
2019-02-20T00:06:26.969Z,148595.84
2019-02-20T00:07:32.968Z,148609.13
2019-02-20T00:08:38.553Z,148645.72
2019-02-20T00:09:44.271Z,148639.41
2019-02-20T00:10:50.189Z,148639.41
2019-02-20T00:11:56.127Z,148658.38
2019-02-20T00:13:02.768Z,148657.73
2019-02-20T00:14:09.204Z,148633.75
2019-02-20T00:15:15.169Z,148689.92
2019-02-20T00:16:21.046Z,148697.50
2019-02-20T00:17:26.984Z,148734.78
2019-02-20T00:18:32.887Z,148737.33
2019-02-20T00:19:38.797Z,148693.09
2019-02-20T00:20:44.739Z,148682.36
2019-02-20T00:21:50.680Z,148684.89
2019-02-20T00:22:56.641Z,148667.84
2019-02-20T00:24:02.586Z,148665.31
2019-02-20T00:25:07.827Z,148677.33
2019-02-20T00:26:13.759Z,148710.16
2019-02-20T00:27:19.674Z,148701.31
2019-02-20T00:28:25.591Z,148730.97
2019-02-20T00:29:31.510Z,148734.16
2019-02-20T00:30:37.411Z,148752.47
2019-02-20T00:31:43.338Z,148757.50
2019-02-20T00:32:48.948Z,148760.69
2019-02-20T00:33:55.088Z,148722.77
2019-02-20T00:35:01.649Z,148709.52
2019-02-20T00:36:07.589Z,148700.69
2019-02-20T00:37:13.518Z,148694.38
2019-02-20T00:38:19.473Z,148676.06
2019-02-20T00:39:25.425Z,148654.56
2019-02-20T00:40:31.315Z,148646.98
2019-02-20T00:41:37.324Z,148628.72
2019-02-20T00:42:43.270Z,148641.95
2019-02-20T00:43:48.967Z,148650.16
2019-02-20T00:44:57.160Z,148612.25
2019-02-20T00:46:03.210Z,148587.64
2019-02-20T00:47:11.286Z,148566.83
2019-02-20T00:49:50.035Z,148581.34
2019-02-20T00:50:56.093Z,148583.87
2019-02-20T00:52:12.537Z,148585.78
2019-02-20T00:53:18.307Z,148607.86
2019-02-20T00:54:24.233Z,148593.36
2019-02-20T00:55:30.121Z,148568.09
2019-02-20T00:56:36.068Z,148593.36
2019-02-20T00:57:41.994Z,148573.13
2019-02-20T00:58:47.947Z,148601.56
2019-02-20T00:59:53.854Z,148600.92
2019-02-20T01:00:59.745Z,148577.58
2019-02-20T01:02:05.322Z,148556.09
2019-02-20T01:03:11.329Z,148535.28
2019-02-20T01:04:17.261Z,148506.23
2019-02-20T01:05:22.849Z,148510.62
2019-02-20T01:06:28.760Z,148524.55
2019-02-20T01:07:34.690Z,148599.02
2019-02-20T01:08:40.685Z,148579.44
2019-02-20T01:09:46.258Z,148657.09
2019-02-20T01:10:51.486Z,148661.55
2019-02-20T01:11:57.062Z,148615.44
2019-02-20T01:13:03.021Z,148583.87
2019-02-20T01:14:08.915Z,148547.25
2019-02-20T01:15:14.481Z,148601.56
2019-02-20T01:16:21.299Z,148587.64
2019-02-20T01:17:28.451Z,148620.47
2019-02-20T01:18:34.394Z,148663.41
2019-02-20T01:19:40.351Z,148670.38
2019-02-20T01:20:45.920Z,148668.47
2019-02-20T01:21:51.909Z,148659.64
2019-02-20T01:22:59.832Z,148646.98
2019-02-20T01:24:03.850Z,148684.25
2019-02-20T01:25:09.117Z,148688.66
2019-02-20T01:26:15.272Z,148712.06
2019-02-20T01:27:21.211Z,148706.34
2019-02-20T01:28:27.151Z,148711.42
2019-02-20T01:29:33.085Z,148771.44
2019-02-20T01:30:38.617Z,148762.59
2019-02-20T01:31:44.558Z,148796.06
2019-02-20T01:32:50.467Z,148782.14
2019-02-20T01:33:56.466Z,148780.28
2019-02-20T01:35:02.375Z,148766.98
2019-02-20T01:36:08.283Z,148777.73
2019-02-20T01:37:14.218Z,148800.47
2019-02-20T01:38:20.119Z,148821.33
2019-02-20T01:39:26.043Z,148830.81
2019-02-20T01:40:31.985Z,148824.47
2019-02-20T01:41:37.886Z,148845.34
2019-02-20T01:42:43.864Z,148832.03
2019-02-20T01:43:49.813Z,148875.00
2019-02-20T01:44:55.740Z,148878.81
2019-02-20T01:46:01.728Z,148892.06
2019-02-20T01:47:07.639Z,148920.53
2019-02-20T01:48:13.566Z,148896.52
2019-02-20T01:49:19.489Z,148854.81
2019-02-20T01:50:25.415Z,148849.73
2019-02-20T01:51:31.302Z,148878.19
2019-02-20T01:52:36.999Z,148840.89
2019-02-20T01:53:42.963Z,148809.94
2019-02-20T01:54:48.855Z,148812.48
2019-02-20T01:55:54.788Z,148775.83
2019-02-20T01:57:00.752Z,148750.56
2019-02-20T01:58:06.395Z,148758.14
2019-02-20T01:59:13.353Z,148747.39
2019-02-20T02:00:20.032Z,148757.50
2019-02-20T02:01:25.999Z,148736.06
2019-02-20T02:02:31.879Z,148701.31
2019-02-20T02:03:39.045Z,148734.16
2019-02-20T02:04:43.787Z,148697.50
2019-02-20T02:05:49.679Z,148676.69
2019-02-20T02:06:55.578Z,148649.53
2019-02-20T02:08:01.491Z,148669.75
2019-02-20T02:09:06.743Z,148657.09
2019-02-20T02:10:12.309Z,148638.14
2019-02-20T02:11:18.146Z,148642.59
2019-02-20T02:12:24.019Z,148655.19
2019-02-20T02:13:29.925Z,148662.77
2019-02-20T02:14:35.816Z,148712.69
2019-02-20T02:15:41.732Z,148713.92
2019-02-20T02:16:47.687Z,148744.89
2019-02-20T02:17:53.620Z,148747.39
2019-02-20T02:18:59.600Z,148700.69
2019-02-20T02:20:04.876Z,148722.77
2019-02-20T02:21:10.755Z,148702.59
2019-02-20T02:22:16.659Z,148712.69
2019-02-20T02:23:22.603Z,148709.52
2019-02-20T02:24:28.532Z,148763.22
2019-02-20T02:25:34.516Z,148769.53
2019-02-20T02:26:40.539Z,148741.72
2019-02-20T02:27:47.046Z,148717.73
2019-02-20T02:28:52.959Z,148790.34
2019-02-20T02:29:58.895Z,148779.64
2019-02-20T02:31:04.832Z,148796.70
2019-02-20T02:32:10.752Z,148785.95
2019-02-20T02:33:16.651Z,148756.88
2019-02-20T02:34:22.604Z,148782.14
2019-02-20T02:35:28.515Z,148762.59
2019-02-20T02:36:34.384Z,148751.84
2019-02-20T02:37:40.300Z,148751.20
2019-02-20T02:38:46.256Z,148737.33
2019-02-20T02:39:52.152Z,148734.78
2019-02-20T02:40:58.033Z,148733.52
2019-02-20T02:42:04.670Z,148743.63
2019-02-20T02:43:10.659Z,148714.56
2019-02-20T02:44:16.571Z,148753.75
2019-02-20T02:45:22.607Z,148799.83
2019-02-20T02:46:28.479Z,148777.73
2019-02-20T02:47:34.382Z,148768.89
2019-02-20T02:48:40.419Z,148763.22
2019-02-20T02:49:46.341Z,148811.84
2019-02-20T02:50:52.218Z,148768.89
2019-02-20T02:51:58.136Z,148784.67
2019-02-20T02:53:04.069Z,148810.58
2019-02-20T02:54:09.995Z,148772.06
2019-02-20T02:55:15.879Z,148770.80
2019-02-20T02:56:21.769Z,148755.02
2019-02-20T02:57:27.662Z,148739.81
2019-02-20T02:58:33.559Z,148745.53
2019-02-20T02:59:39.487Z,148724.03
2019-02-20T03:00:45.437Z,148719.00
2019-02-20T03:01:51.326Z,148745.53
2019-02-20T03:02:57.245Z,148717.73
2019-02-20T03:04:03.173Z,148726.56
2019-02-20T03:05:08.424Z,148700.05
2019-02-20T03:06:14.320Z,148747.39
2019-02-20T03:07:19.852Z,148697.50
2019-02-20T03:08:25.826Z,148691.20
2019-02-20T03:09:31.737Z,148650.80
2019-02-20T03:10:37.655Z,148629.94
2019-02-20T03:11:43.560Z,148598.38
2019-02-20T03:12:49.472Z,148579.44
2019-02-20T03:13:55.386Z,148597.11
2019-02-20T03:15:01.300Z,148580.06
2019-02-20T03:16:07.222Z,148573.77
2019-02-20T03:17:13.198Z,148561.17
2019-02-20T03:18:19.138Z,148561.75
2019-02-20T03:19:25.085Z,148563.03
2019-02-20T03:20:31.039Z,148567.47
2019-02-20T03:21:36.959Z,148601.56
2019-02-20T03:22:42.864Z,148620.47
2019-02-20T03:23:48.779Z,148631.20
2019-02-20T03:24:54.791Z,148590.81
2019-02-20T03:26:00.690Z,148564.92
2019-02-20T03:27:06.594Z,148561.75
2019-02-20T03:28:12.519Z,148551.69
2019-02-20T03:29:18.490Z,148547.25
2019-02-20T03:30:24.426Z,148586.42
2019-02-20T03:31:30.313Z,148607.86
2019-02-20T03:32:36.217Z,148568.73
2019-02-20T03:33:42.184Z,148580.06
2019-02-20T03:34:48.103Z,148562.39
2019-02-20T03:35:54.050Z,148590.19
2019-02-20T03:36:59.580Z,148562.39
2019-02-20T03:38:04.821Z,148532.11
2019-02-20T03:39:10.751Z,148534.02
2019-02-20T03:40:16.686Z,148528.30
2019-02-20T03:41:22.655Z,148524.55
2019-02-20T03:42:28.588Z,148537.78
2019-02-20T03:43:34.508Z,148518.87
2019-02-20T03:44:40.442Z,148542.86
2019-02-20T03:45:47.040Z,148553.55
2019-02-20T03:46:52.986Z,148558.00
2019-02-20T03:47:58.914Z,148509.41
2019-02-20T03:49:04.529Z,148524.55
2019-02-20T03:50:10.668Z,148551.06
2019-02-20T03:51:16.536Z,148535.28
2019-02-20T03:52:22.434Z,148559.27
2019-02-20T03:53:28.408Z,148605.31
2019-02-20T03:54:34.009Z,148547.88
2019-02-20T03:55:39.905Z,148535.28
2019-02-20T03:56:45.786Z,148570.59
2019-02-20T03:57:51.917Z,148609.77
2019-02-20T03:58:57.437Z,148580.06
2019-02-20T04:00:02.695Z,148535.28
2019-02-20T04:01:08.638Z,148525.81
2019-02-20T04:02:14.577Z,148504.33
2019-02-20T04:03:20.459Z,148491.73
2019-02-20T04:04:26.414Z,148551.06
2019-02-20T04:05:32.363Z,148522.00
2019-02-20T04:06:37.902Z,148509.41
2019-02-20T04:07:43.850Z,148504.33
2019-02-20T04:08:49.818Z,148501.20
2019-02-20T04:09:55.738Z,148500.56
2019-02-20T04:11:01.668Z,148515.70
2019-02-20T04:12:07.564Z,148554.19
2019-02-20T04:13:13.477Z,148622.38
2019-02-20T04:14:19.446Z,148579.44
2019-02-20T04:15:25.373Z,148571.86
2019-02-20T04:16:30.923Z,148564.30
2019-02-20T04:17:36.521Z,148570.59
2019-02-20T04:18:42.515Z,148581.34
2019-02-20T04:19:48.426Z,148552.33
2019-02-20T04:20:54.399Z,148553.55
2019-02-20T04:22:00.353Z,148568.09
2019-02-20T04:23:06.321Z,148573.13
2019-02-20T04:24:12.230Z,148641.95
2019-02-20T04:25:18.160Z,148642.59
2019-02-20T04:26:24.130Z,148674.78
2019-02-20T04:27:30.080Z,148689.92
2019-02-20T04:28:36.052Z,148647.63
2019-02-20T04:29:42.178Z,148640.69
2019-02-20T04:30:48.129Z,148672.88
2019-02-20T04:31:54.058Z,148674.78
2019-02-20T04:33:00.026Z,148672.88
2019-02-20T04:34:05.922Z,148697.50
2019-02-20T04:35:11.488Z,148676.06
2019-02-20T04:36:17.411Z,148645.13
2019-02-20T04:37:23.292Z,148653.34
2019-02-20T04:38:29.215Z,148617.97
2019-02-20T04:39:35.143Z,148623.00
2019-02-20T04:40:41.082Z,148621.73
2019-02-20T04:41:47.022Z,148632.47
2019-02-20T04:42:52.994Z,148681.09
2019-02-20T04:43:58.925Z,148679.23
2019-02-20T04:45:04.192Z,148617.97
2019-02-20T04:46:10.115Z,148648.89
2019-02-20T04:47:16.104Z,148636.28
2019-02-20T04:48:22.036Z,148648.25
2019-02-20T04:49:27.973Z,148659.64
2019-02-20T04:50:33.928Z,148658.38
2019-02-20T04:51:39.817Z,148663.41
2019-02-20T04:52:45.755Z,148704.48
2019-02-20T04:53:51.713Z,148673.52
2019-02-20T04:54:57.622Z,148653.97
2019-02-20T04:56:03.559Z,148649.53
2019-02-20T04:57:09.478Z,148624.91
2019-02-20T04:58:16.605Z,148662.19
2019-02-20T04:59:22.601Z,148665.94
2019-02-20T05:00:28.527Z,148641.31
2019-02-20T05:01:34.462Z,148628.08
2019-02-20T05:02:40.361Z,148633.75
2019-02-20T05:03:46.293Z,148622.38
2019-02-20T05:04:51.811Z,148648.89
2019-02-20T05:05:57.744Z,148623.64
2019-02-20T05:07:03.690Z,148600.92
2019-02-20T05:08:09.355Z,148591.45
2019-02-20T05:09:15.339Z,148613.53
2019-02-20T05:10:21.316Z,148645.72
2019-02-20T05:11:28.133Z,148680.45
2019-02-20T05:12:34.604Z,148692.47
2019-02-20T05:13:40.563Z,148641.95
2019-02-20T05:14:46.484Z,148631.20
2019-02-20T05:15:52.395Z,148647.63
2019-02-20T05:16:58.385Z,148650.16
2019-02-20T05:18:03.916Z,148649.53
2019-02-20T05:19:09.926Z,148624.28
2019-02-20T05:20:15.883Z,148583.25
2019-02-20T05:21:23.086Z,148569.37
2019-02-20T05:22:29.012Z,148558.00
2019-02-20T05:23:35.060Z,148563.66
2019-02-20T05:24:41.019Z,148564.92
2019-02-20T05:25:46.930Z,148585.78
2019-02-20T05:26:52.982Z,148633.11
2019-02-20T05:27:58.980Z,148621.73
2019-02-20T05:29:04.903Z,148616.70
2019-02-20T05:30:10.195Z,148631.20
2019-02-20T05:31:16.668Z,148660.28
2019-02-20T05:32:22.773Z,148657.73
2019-02-20T05:33:29.303Z,148692.47
2019-02-20T05:34:35.201Z,148692.47
2019-02-20T05:35:41.107Z,148670.38
2019-02-20T05:36:47.062Z,148692.47
2019-02-20T05:37:52.644Z,148703.86
2019-02-20T05:38:58.620Z,148721.55
2019-02-20T05:40:04.134Z,148679.81
2019-02-20T05:41:10.033Z,148651.44
2019-02-20T05:42:15.941Z,148711.42
2019-02-20T05:43:21.902Z,148725.94
2019-02-20T05:44:27.814Z,148715.83
2019-02-20T05:45:33.738Z,148684.89
2019-02-20T05:46:39.701Z,148691.83
2019-02-20T05:47:45.642Z,148724.03
2019-02-20T05:48:51.565Z,148707.61
2019-02-20T05:49:57.439Z,148699.41
2019-02-20T05:51:03.367Z,148708.87
2019-02-20T05:52:09.345Z,148733.52
2019-02-20T05:53:15.260Z,148717.73
2019-02-20T05:54:34.021Z,148674.16
2019-02-20T05:55:33.918Z,148676.69
2019-02-20T05:56:39.859Z,148677.95
2019-02-20T05:57:45.898Z,148647.63
2019-02-20T05:58:51.822Z,148655.83
2019-02-20T05:59:57.699Z,148664.67
2019-02-20T06:01:03.670Z,148657.73
2019-02-20T06:02:10.044Z,148686.16
2019-02-20T06:03:17.204Z,148704.48
2019-02-20T06:04:23.149Z,148739.81
2019-02-20T06:05:29.098Z,148743.63
2019-02-20T06:06:35.027Z,148732.25
2019-02-20T06:07:40.904Z,148712.06
2019-02-20T06:08:46.863Z,148684.25
2019-02-20T06:09:52.746Z,148663.41
2019-02-20T06:10:58.637Z,148755.02
2019-02-20T06:12:04.232Z,148745.53
2019-02-20T06:13:10.131Z,148708.25
2019-02-20T06:14:17.021Z,148739.81
2019-02-20T06:15:22.932Z,148713.33
2019-02-20T06:16:29.222Z,148688.03
2019-02-20T06:17:35.130Z,148635.66
2019-02-20T06:18:41.053Z,148620.47
2019-02-20T06:19:46.982Z,148612.25
2019-02-20T06:20:52.863Z,148644.50
2019-02-20T06:21:58.766Z,148657.73
2019-02-20T06:23:04.717Z,148649.53
2019-02-20T06:24:10.628Z,148641.31
2019-02-20T06:25:16.534Z,148661.55
2019-02-20T06:26:22.509Z,148677.33
2019-02-20T06:27:28.441Z,148693.73
2019-02-20T06:28:34.317Z,148667.84
2019-02-20T06:29:40.221Z,148631.20
2019-02-20T06:30:46.135Z,148631.20
2019-02-20T06:31:52.055Z,148691.20
2019-02-20T06:32:58.081Z,148727.84
2019-02-20T06:34:04.048Z,148748.03
2019-02-20T06:35:09.577Z,148691.20
2019-02-20T06:36:16.175Z,148644.50
2019-02-20T06:37:22.569Z,148655.83
2019-02-20T06:38:28.464Z,148717.73
2019-02-20T06:39:34.376Z,148735.42
2019-02-20T06:40:40.308Z,148712.06
2019-02-20T06:41:46.207Z,148695.64
2019-02-20T06:42:52.112Z,148738.59
2019-02-20T06:43:58.048Z,148737.97
2019-02-20T06:45:03.276Z,148712.69
2019-02-20T06:46:09.215Z,148755.66
2019-02-20T06:47:15.156Z,148772.66
2019-02-20T06:48:21.088Z,148737.97
2019-02-20T06:49:27.050Z,148715.83
2019-02-20T06:50:32.938Z,148716.47
2019-02-20T06:51:38.906Z,148684.89
2019-02-20T06:52:44.823Z,148679.23
2019-02-20T06:53:53.107Z,148694.38
2019-02-20T06:54:59.033Z,148688.03
2019-02-20T06:56:04.985Z,148727.20
2019-02-20T06:57:11.215Z,148773.28
2019-02-20T06:58:17.952Z,148757.50
2019-02-20T06:59:23.914Z,148720.91
2019-02-20T07:00:29.824Z,148700.05
2019-02-20T07:01:35.723Z,148716.47
2019-02-20T07:02:41.588Z,148727.84
2019-02-20T07:03:54.123Z,148731.61
2019-02-20T07:05:11.100Z,148735.42
2019-02-20T07:08:08.021Z,148737.97
2019-02-20T07:09:18.832Z,148751.20
2019-02-20T07:10:25.640Z,148768.89
2019-02-20T07:11:39.702Z,148714.56
2019-02-20T07:12:45.719Z,148729.75
2019-02-20T07:14:06.539Z,148745.53
2019-02-20T07:15:19.288Z,148771.44
2019-02-20T07:16:42.865Z,148789.72
2019-02-20T07:17:57.568Z,148809.31
2019-02-20T07:19:05.192Z,148778.38
2019-02-20T07:20:45.733Z,148785.95
2019-02-20T07:21:55.694Z,148788.48
2019-02-20T07:23:05.463Z,148761.95
2019-02-20T07:24:26.903Z,148766.34
2019-02-20T07:25:36.476Z,148813.13
2019-02-20T07:26:45.652Z,148828.28
2019-02-20T07:28:10.840Z,148844.06
2019-02-20T07:29:31.706Z,148826.38
2019-02-20T07:30:37.271Z,148832.03
2019-02-20T07:31:43.232Z,148830.19
2019-02-20T07:32:49.352Z,148827.64
2019-02-20T07:33:55.353Z,148840.25
2019-02-20T07:35:01.250Z,148863.03
2019-02-20T07:36:07.194Z,148879.45
2019-02-20T07:37:13.126Z,148905.37
2019-02-20T07:38:20.251Z,148917.34
2019-02-20T07:39:26.154Z,148922.44
2019-02-20T07:40:32.072Z,148912.31
2019-02-20T07:41:38.006Z,148917.98
2019-02-20T07:42:43.664Z,148953.44
2019-02-20T07:43:49.632Z,148934.47
2019-02-20T07:44:55.602Z,148915.50
2019-02-20T07:46:01.509Z,148933.23
2019-02-20T07:47:07.428Z,148909.77
2019-02-20T07:48:13.384Z,148923.06
2019-02-20T07:49:19.323Z,148932.59
2019-02-20T07:50:25.255Z,148949.67
2019-02-20T07:51:32.447Z,148955.97
2019-02-20T07:52:38.398Z,148937.64
2019-02-20T07:53:44.331Z,148938.28
2019-02-20T07:54:50.258Z,148934.47
2019-02-20T07:55:56.194Z,148887.03
2019-02-20T07:57:02.095Z,148919.89
2019-02-20T07:58:07.992Z,148932.59
2019-02-20T07:59:13.953Z,148924.92
2019-02-20T08:00:19.978Z,148964.83
2019-02-20T08:01:29.635Z,148981.25
2019-02-20T08:02:35.544Z,148969.22
2019-02-20T08:03:41.461Z,148981.25
2019-02-20T08:04:46.993Z,148989.47
2019-02-20T08:05:52.909Z,148990.11
2019-02-20T08:06:58.822Z,149011.58
2019-02-20T08:08:04.741Z,149031.83
2019-02-20T08:09:10.672Z,149031.83
2019-02-20T08:10:16.547Z,149019.16
2019-02-20T08:11:22.431Z,149028.02
2019-02-20T08:12:28.406Z,149032.47
2019-02-20T08:13:39.285Z,149073.56
2019-02-20T08:14:40.259Z,149105.80
2019-02-20T08:15:46.138Z,149119.69
2019-02-20T08:16:52.890Z,149064.70
2019-02-20T08:17:58.019Z,149088.72
2019-02-20T08:19:03.953Z,149102.03
2019-02-20T08:20:09.174Z,149117.19
2019-02-20T08:21:15.085Z,149122.88
2019-02-20T08:22:20.950Z,149116.56
2019-02-20T08:23:26.884Z,149167.16
2019-02-20T08:24:32.817Z,149145.63
2019-02-20T08:25:38.748Z,149127.31
2019-02-20T08:26:44.658Z,149131.72
2019-02-20T08:27:50.541Z,149162.70
2019-02-20T08:28:56.467Z,149165.87
2019-02-20T08:30:02.363Z,149172.83
2019-02-20T08:31:08.255Z,149106.44
2019-02-20T08:32:14.152Z,149105.16
2019-02-20T08:33:20.064Z,149107.70
2019-02-20T08:34:25.998Z,149126.05
2019-02-20T08:35:31.891Z,149137.41
2019-02-20T08:36:37.823Z,149186.14
2019-02-20T08:37:43.751Z,149193.72
2019-02-20T08:38:49.713Z,149201.31
2019-02-20T08:39:55.677Z,149237.38
2019-02-20T08:41:01.568Z,149256.33
2019-02-20T08:42:07.531Z,149267.73
2019-02-20T08:43:14.002Z,149272.77
2019-02-20T08:44:20.076Z,149306.94
2019-02-20T08:45:25.968Z,149319.63
2019-02-20T08:46:31.862Z,149317.08
2019-02-20T08:47:37.779Z,149318.98
2019-02-20T08:48:43.840Z,149324.66
2019-02-20T08:49:49.796Z,149348.70
2019-02-20T08:50:55.717Z,149320.25
2019-02-20T08:52:01.599Z,149305.72
2019-02-20T08:53:09.470Z,149259.50
2019-02-20T08:54:15.416Z,149277.22
2019-02-20T08:55:21.312Z,149301.25
2019-02-20T08:56:27.230Z,149346.20
2019-02-20T08:57:33.116Z,149368.97
2019-02-20T08:58:39.075Z,149392.38
2019-02-20T08:59:44.996Z,149415.84
2019-02-20T09:00:50.538Z,149431.03
2019-02-20T09:01:56.443Z,149429.75
2019-02-20T09:03:02.351Z,149405.70
2019-02-20T09:04:08.783Z,149423.44
2019-02-20T09:05:14.907Z,149462.66
2019-02-20T09:06:20.480Z,149471.53
2019-02-20T09:07:26.392Z,149510.12
2019-02-20T09:08:33.153Z,149477.84
2019-02-20T09:09:39.135Z,149496.84
2019-02-20T09:10:45.052Z,149535.50
2019-02-20T09:11:50.969Z,149527.22
2019-02-20T09:12:56.873Z,149487.98
2019-02-20T09:14:02.811Z,149498.13
2019-02-20T09:15:08.038Z,149523.45
2019-02-20T09:16:13.911Z,149560.84
2019-02-20T09:17:19.826Z,149604.55
2019-02-20T09:18:25.727Z,149607.09
2019-02-20T09:19:31.622Z,149637.47
2019-02-20T09:20:37.553Z,149633.70
2019-02-20T09:21:43.453Z,149595.03
2019-02-20T09:22:49.334Z,149610.28
2019-02-20T09:23:55.261Z,149614.05
2019-02-20T09:25:01.974Z,149647.63
2019-02-20T09:26:08.007Z,149615.97
2019-02-20T09:27:13.931Z,149626.75
2019-02-20T09:28:19.843Z,149648.25
2019-02-20T09:29:26.257Z,149651.44
2019-02-20T09:30:32.196Z,149638.75
2019-02-20T09:31:38.130Z,149641.30
2019-02-20T09:32:44.053Z,149649.53
2019-02-20T09:33:49.961Z,149592.53
2019-02-20T09:34:55.869Z,149633.06
2019-02-20T09:36:01.821Z,149612.78
2019-02-20T09:37:07.752Z,149641.30
2019-02-20T09:38:13.676Z,149683.75
2019-02-20T09:39:32.712Z,149663.45
2019-02-20T09:40:38.582Z,149674.23
2019-02-20T09:41:44.499Z,149718.59
2019-02-20T09:42:49.677Z,149662.81
2019-02-20T09:43:55.606Z,149625.47
2019-02-20T09:45:01.519Z,149586.81
2019-02-20T09:46:07.870Z,149649.53
2019-02-20T09:47:14.277Z,149643.22
2019-02-20T09:48:20.214Z,149633.70
2019-02-20T09:49:26.160Z,149634.97
2019-02-20T09:50:32.099Z,149655.22
2019-02-20T09:51:37.987Z,149671.05
2019-02-20T09:52:51.886Z,149686.94
2019-02-20T09:53:49.466Z,149708.44
2019-02-20T09:54:55.433Z,149697.03
2019-02-20T09:56:01.406Z,149714.13
2019-02-20T09:57:07.285Z,149725.56
2019-02-20T09:58:13.224Z,149739.47
2019-02-20T09:59:19.185Z,149739.47
2019-02-20T10:00:25.122Z,149729.97
2019-02-20T10:01:32.153Z,149765.47
2019-02-20T10:02:37.065Z,149772.42
2019-02-20T10:03:42.973Z,149781.30
2019-02-20T10:04:48.961Z,149768.02
2019-02-20T10:05:54.980Z,149791.45
2019-02-20T10:07:01.788Z,149769.28
2019-02-20T10:08:08.105Z,149809.20
2019-02-20T10:09:14.094Z,149844.70
2019-02-20T10:10:20.271Z,149845.34
2019-02-20T10:11:26.808Z,149802.87
2019-02-20T10:12:33.381Z,149768.02
2019-02-20T10:13:39.594Z,149820.63
2019-02-20T10:14:45.521Z,149847.89
2019-02-20T10:15:51.428Z,149891.59
2019-02-20T10:16:56.963Z,149848.48
2019-02-20T10:18:02.883Z,149847.89
2019-02-20T10:19:08.949Z,149840.87
2019-02-20T10:20:14.550Z,149794.64
2019-02-20T10:21:20.563Z,149822.53
2019-02-20T10:22:26.540Z,149874.47
2019-02-20T10:23:32.483Z,149863.09
2019-02-20T10:24:38.441Z,149820.63
2019-02-20T10:25:44.324Z,149848.48
2019-02-20T10:26:50.252Z,149818.08
2019-02-20T10:27:56.167Z,149804.16
2019-02-20T10:29:02.305Z,149837.75
2019-02-20T10:30:07.582Z,149856.12
2019-02-20T10:31:13.521Z,149866.23
2019-02-20T10:32:19.434Z,149895.41
2019-02-20T10:33:25.442Z,149841.52
2019-02-20T10:34:31.342Z,149883.34
2019-02-20T10:35:37.268Z,149908.08
2019-02-20T10:36:43.258Z,149906.84
2019-02-20T10:37:49.170Z,149899.25
2019-02-20T10:38:55.077Z,149902.37
2019-02-20T10:40:01.019Z,149878.30
2019-02-20T10:41:07.035Z,149897.97
2019-02-20T10:42:12.938Z,149909.98
2019-02-20T10:43:18.824Z,149972.14
2019-02-20T10:44:24.720Z,149984.80
2019-02-20T10:45:30.731Z,149950.55
2019-02-20T10:46:36.801Z,150000.69
2019-02-20T10:47:42.894Z,150021.00
2019-02-20T10:48:49.068Z,150009.63
2019-02-20T10:49:55.914Z,150008.98
2019-02-20T10:51:02.307Z,150020.37
2019-02-20T10:52:08.533Z,150005.80
2019-02-20T10:53:14.834Z,149993.03
2019-02-20T10:54:20.878Z,150000.69
2019-02-20T10:55:26.832Z,150004.52
2019-02-20T10:56:32.417Z,150014.69
2019-02-20T10:57:37.989Z,150034.98
2019-02-20T10:58:44.012Z,150049.56
2019-02-20T10:59:49.903Z,150067.33
2019-02-20T11:00:55.851Z,150087.59
2019-02-20T11:02:01.754Z,150113.61
2019-02-20T11:03:07.674Z,150114.89
2019-02-20T11:04:13.284Z,150132.02
2019-02-20T11:05:18.852Z,150125.69
2019-02-20T11:06:24.762Z,150081.91
2019-02-20T11:07:30.691Z,150133.30
2019-02-20T11:08:36.589Z,150168.19
2019-02-20T11:09:42.163Z,150159.94
2019-02-20T11:10:48.090Z,150114.89
2019-02-20T11:11:54.531Z,150115.53
2019-02-20T11:13:00.047Z,150154.84
2019-02-20T11:14:05.257Z,150198.62
2019-02-20T11:15:10.622Z,150198.00
2019-02-20T11:16:16.558Z,150232.91
2019-02-20T11:17:22.539Z,150223.37
2019-02-20T11:18:28.447Z,150188.47
2019-02-20T11:19:34.387Z,150120.00
2019-02-20T11:20:48.306Z,150133.30
2019-02-20T11:21:46.998Z,150175.81
2019-02-20T11:22:52.871Z,150211.98
2019-02-20T11:23:58.838Z,150239.23
2019-02-20T11:25:04.061Z,150221.52
2019-02-20T11:26:17.620Z,150206.25
2019-02-20T11:27:15.948Z,150246.27
2019-02-20T11:28:26.964Z,150269.09
2019-02-20T11:29:27.923Z,150295.75
2019-02-20T11:30:33.889Z,150237.37
2019-02-20T11:31:40.236Z,150246.91
2019-02-20T11:32:46.683Z,150260.84
2019-02-20T11:33:52.629Z,150208.16
2019-02-20T11:34:58.515Z,150234.81
2019-02-20T11:36:04.100Z,150257.02
2019-02-20T11:37:10.055Z,150279.89
2019-02-20T11:38:16.002Z,150300.81
2019-02-20T11:39:21.916Z,150317.31
2019-02-20T11:40:27.843Z,150330.03
2019-02-20T11:41:33.772Z,150354.16
2019-02-20T11:42:39.669Z,150346.55
2019-02-20T11:43:45.595Z,150392.86
2019-02-20T11:44:51.493Z,150429.75
2019-02-20T11:45:57.463Z,150471.67
2019-02-20T11:47:03.492Z,150507.25
2019-02-20T11:48:09.368Z,150507.87
2019-02-20T11:49:15.270Z,150349.69
2019-02-20T11:50:21.186Z,150386.53
2019-02-20T11:51:27.322Z,150385.25
2019-02-20T11:52:38.439Z,150352.25
2019-02-20T11:53:39.171Z,150370.66
2019-02-20T11:54:45.125Z,150357.94
2019-02-20T11:55:51.102Z,150365.59
2019-02-20T11:56:57.008Z,150379.55
2019-02-20T11:58:02.953Z,150315.41
2019-02-20T11:59:08.929Z,150251.31
2019-02-20T12:00:15.882Z,150304.66
2019-02-20T12:01:21.852Z,150343.34
2019-02-20T12:02:27.820Z,150301.45
2019-02-20T12:03:33.757Z,150290.66
2019-02-20T12:04:39.667Z,150328.77
2019-02-20T12:05:45.654Z,150304.02
2019-02-20T12:06:51.616Z,150294.48
2019-02-20T12:07:57.557Z,150224.66
2019-02-20T12:09:03.194Z,150250.03
2019-02-20T12:10:08.794Z,150277.98
2019-02-20T12:11:14.461Z,150335.09
2019-02-20T12:12:20.390Z,150361.77
2019-02-20T12:13:26.468Z,150340.84
2019-02-20T12:14:32.984Z,150324.30
2019-02-20T12:15:38.898Z,150361.77
2019-02-20T12:16:44.817Z,150401.16
2019-02-20T12:17:50.396Z,150379.55
2019-02-20T12:18:56.321Z,150387.80
2019-02-20T12:20:02.442Z,150343.34
2019-02-20T12:21:08.356Z,150330.67
2019-02-20T12:22:14.310Z,150293.20
2019-02-20T12:23:20.206Z,150328.13
2019-02-20T12:24:26.162Z,150357.94
2019-02-20T12:25:31.735Z,150403.72
2019-02-20T12:26:37.680Z,150467.25
2019-02-20T12:27:43.609Z,150429.13
2019-02-20T12:28:49.486Z,150478.64
2019-02-20T12:29:55.403Z,150510.44
2019-02-20T12:31:01.448Z,150451.37
2019-02-20T12:32:07.108Z,150444.34
2019-02-20T12:33:13.013Z,150413.25
2019-02-20T12:34:18.951Z,150395.47
2019-02-20T12:35:24.881Z,150441.84
2019-02-20T12:36:30.819Z,150503.41
2019-02-20T12:37:36.727Z,150532.02
2019-02-20T12:38:42.664Z,150553.00
2019-02-20T12:39:48.576Z,150488.81